createdAt,value
2024-02-10T00:00:19.988Z,9.05
2024-02-10T00:02:51.582Z,8.82
2024-02-10T00:05:17.907Z,8.68
2024-02-10T00:07:52.139Z,7.38
2024-02-10T00:10:21.106Z,10.98
2024-02-10T00:12:47.562Z,9.48
2024-02-10T00:15:15.050Z,8.88
2024-02-10T00:17:41.326Z,7.53
2024-02-10T00:20:13.985Z,9.73
2024-02-10T00:22:40.118Z,7.53
2024-02-10T00:25:06.567Z,9.85
2024-02-10T00:27:32.365Z,8.40
2024-02-10T00:29:59.213Z,5.72
2024-02-10T00:32:25.046Z,9.00
2024-02-10T00:34:50.894Z,7.93
2024-02-10T00:37:17.104Z,6.80
2024-02-10T00:39:44.809Z,10.45
2024-02-10T00:42:12.081Z,8.60
2024-02-10T00:44:38.653Z,9.20
2024-02-10T00:47:13.038Z,9.07
2024-02-10T00:49:39.837Z,7.00
2024-02-10T00:52:08.842Z,7.03
2024-02-10T00:54:38.391Z,9.32
2024-02-10T00:57:10.839Z,6.85
2024-02-10T00:59:41.564Z,7.95
2024-02-10T01:02:18.218Z,10.55
2024-02-10T01:04:44.722Z,9.65
2024-02-10T01:07:10.814Z,8.60
2024-02-10T01:09:39.281Z,9.63
2024-02-10T01:12:06.155Z,5.88
2024-02-10T01:14:32.732Z,10.43
2024-02-10T01:16:59.398Z,10.27
2024-02-10T01:19:26.528Z,11.95
2024-02-10T01:21:55.281Z,6.60
2024-02-10T01:26:50.228Z,7.63
2024-02-10T01:29:16.221Z,7.30
2024-02-10T01:31:42.795Z,8.70
2024-02-10T01:34:09.481Z,7.72
2024-02-10T01:36:35.467Z,9.05
2024-02-10T01:39:01.773Z,5.85
2024-02-10T01:41:30.568Z,9.50
2024-02-10T01:43:56.397Z,7.95
2024-02-10T01:46:23.819Z,5.80
2024-02-10T01:48:51.089Z,8.23
2024-02-10T01:51:20.973Z,6.82
2024-02-10T01:53:48.197Z,6.45
2024-02-10T01:56:17.973Z,6.22
2024-02-10T01:58:48.206Z,8.68
2024-02-10T02:01:17.717Z,5.30
2024-02-10T02:03:46.978Z,5.10
2024-02-10T02:06:17.952Z,4.88
2024-02-10T02:08:51.462Z,6.55
2024-02-10T02:11:17.896Z,7.38
2024-02-10T02:13:44.153Z,10.65
2024-02-10T02:16:12.985Z,7.78
2024-02-10T02:18:40.192Z,4.90
2024-02-10T02:21:06.866Z,8.10
2024-02-10T02:23:35.498Z,5.38
2024-02-10T02:26:01.453Z,6.25
2024-02-10T02:28:27.412Z,6.22
2024-02-10T02:30:53.286Z,6.30
2024-02-10T02:33:21.190Z,5.88
2024-02-10T02:35:48.609Z,5.07
2024-02-10T02:38:14.456Z,5.18
2024-02-10T02:40:42.309Z,5.55
2024-02-10T02:43:09.485Z,6.22
2024-02-10T02:45:35.923Z,7.05
2024-02-10T02:48:04.582Z,4.70
2024-02-10T02:53:02.665Z,6.78
2024-02-10T02:55:29.309Z,6.10
2024-02-10T02:57:56.291Z,5.25
2024-02-10T03:00:23.041Z,4.15
2024-02-10T03:02:49.396Z,5.05
2024-02-10T03:05:18.364Z,6.97
2024-02-10T03:07:47.989Z,6.07
2024-02-10T03:10:14.928Z,5.20
2024-02-10T03:12:49.231Z,7.05
2024-02-10T03:15:15.722Z,5.38
2024-02-10T03:17:47.223Z,6.90
2024-02-10T03:20:13.746Z,4.80
2024-02-10T03:22:40.372Z,3.80
2024-02-10T03:25:06.657Z,5.93
2024-02-10T03:27:32.529Z,5.57
2024-02-10T03:30:00.625Z,6.88
2024-02-10T03:32:32.973Z,5.93
2024-02-10T03:34:59.052Z,6.32
2024-02-10T03:37:29.007Z,5.97
2024-02-10T03:39:55.069Z,5.38
2024-02-10T03:42:20.941Z,6.00
2024-02-10T03:44:47.117Z,4.47
2024-02-10T03:47:13.037Z,4.97
2024-02-10T03:49:38.904Z,7.22
2024-02-10T03:52:04.959Z,8.70
2024-02-10T03:54:30.860Z,8.10
2024-02-10T03:56:56.776Z,6.22
2024-02-10T03:59:23.177Z,8.02
2024-02-10T04:01:49.052Z,7.15
2024-02-10T04:04:15.118Z,5.60
2024-02-10T04:06:41.184Z,8.50
2024-02-10T04:09:07.611Z,7.25
2024-02-10T04:11:37.190Z,8.02
2024-02-10T04:14:03.983Z,6.32
2024-02-10T04:16:30.037Z,6.00
2024-02-10T04:18:59.743Z,8.20
2024-02-10T04:21:26.811Z,6.63
2024-02-10T04:23:52.653Z,8.10
2024-02-10T04:26:19.090Z,10.75
2024-02-10T04:28:45.418Z,6.22
2024-02-10T04:31:13.679Z,6.07
2024-02-10T04:33:50.849Z,6.53
2024-02-10T04:36:17.018Z,6.72
2024-02-10T04:38:42.917Z,7.85
2024-02-10T04:41:08.842Z,5.55
2024-02-10T04:43:36.448Z,5.25
2024-02-10T04:46:02.580Z,8.50
2024-02-10T04:48:28.452Z,6.65
2024-02-10T04:50:57.486Z,6.25
2024-02-10T04:53:25.624Z,8.00
2024-02-10T04:55:51.891Z,4.82
2024-02-10T04:58:17.738Z,5.70
2024-02-10T05:00:43.747Z,6.45
2024-02-10T05:03:09.787Z,6.95
2024-02-10T05:05:35.854Z,5.85
2024-02-10T05:08:01.812Z,7.00
2024-02-10T05:10:27.748Z,6.45
2024-02-10T05:12:56.155Z,7.43
2024-02-10T05:15:23.556Z,7.13
2024-02-10T05:17:51.067Z,7.35
2024-02-10T05:20:22.960Z,7.88
2024-02-10T05:22:53.882Z,7.18
2024-02-10T05:25:21.902Z,5.68
2024-02-10T05:27:48.745Z,5.25
2024-02-10T05:30:24.600Z,8.35
2024-02-10T05:32:51.877Z,7.10
2024-02-10T05:35:20.899Z,5.80
2024-02-10T05:37:55.723Z,6.32
2024-02-10T05:40:22.668Z,6.32
2024-02-10T05:42:50.579Z,6.03
2024-02-10T05:45:18.646Z,7.20
2024-02-10T05:47:45.501Z,8.18
2024-02-10T05:50:18.901Z,9.73
2024-02-10T05:52:45.669Z,6.45
2024-02-10T05:55:21.649Z,10.55
2024-02-10T05:57:50.812Z,6.18
2024-02-10T06:00:17.032Z,8.38
2024-02-10T06:02:43.080Z,5.68
2024-02-10T06:05:10.973Z,9.27
2024-02-10T06:07:41.640Z,9.20
2024-02-10T06:10:15.992Z,5.82
2024-02-10T06:12:46.377Z,8.70
2024-02-10T06:15:13.385Z,7.03
2024-02-10T06:17:45.215Z,10.00
2024-02-10T06:20:15.477Z,7.82
2024-02-10T06:22:48.049Z,8.00
2024-02-10T06:25:23.250Z,8.35
2024-02-10T06:27:52.924Z,7.15
2024-02-10T06:30:19.438Z,6.35
2024-02-10T06:32:45.908Z,6.63
2024-02-10T06:35:13.418Z,8.32
2024-02-10T06:37:41.096Z,6.40
2024-02-10T06:40:09.076Z,6.60
2024-02-10T06:42:35.980Z,5.78
2024-02-10T06:45:08.605Z,9.43
2024-02-10T06:47:36.476Z,8.43
2024-02-10T06:50:04.768Z,9.52
2024-02-10T06:52:37.475Z,9.70
2024-02-10T06:55:04.922Z,10.18
2024-02-10T06:57:34.102Z,12.07
2024-02-10T07:00:15.305Z,8.68
2024-02-10T07:02:43.474Z,10.95
2024-02-10T07:05:10.580Z,8.95
2024-02-10T07:07:39.653Z,11.13
2024-02-10T07:12:38.484Z,6.40
2024-02-10T07:15:04.674Z,12.52
2024-02-10T07:17:31.572Z,7.38
2024-02-10T07:19:57.395Z,8.63
2024-02-10T07:22:25.984Z,8.02
2024-02-10T07:24:51.824Z,8.27
2024-02-10T07:27:18.338Z,10.02
2024-02-10T07:29:45.733Z,8.65
2024-02-10T07:32:13.572Z,7.82
2024-02-10T07:34:40.123Z,9.55
2024-02-10T07:37:07.528Z,9.48
2024-02-10T07:39:33.804Z,7.18
2024-02-10T07:42:01.958Z,7.90
2024-02-10T07:44:28.257Z,8.88
2024-02-10T07:46:55.806Z,11.93
2024-02-10T07:49:23.286Z,8.23
2024-02-10T07:51:49.561Z,12.00
2024-02-10T07:54:20.595Z,7.25
2024-02-10T07:56:47.305Z,8.70
2024-02-10T07:59:14.010Z,7.15
2024-02-10T08:01:40.110Z,8.18
2024-02-10T08:04:10.263Z,6.35
2024-02-10T08:06:36.890Z,6.65
2024-02-10T08:09:03.626Z,6.40
2024-02-10T08:11:29.917Z,6.68
2024-02-10T08:13:57.019Z,4.75
2024-02-10T08:16:28.485Z,4.35
2024-02-10T08:18:57.832Z,6.95
2024-02-10T08:21:26.572Z,6.65
2024-02-10T08:26:22.092Z,7.20
2024-02-10T08:28:51.940Z,6.15
2024-02-10T08:31:21.133Z,8.90
2024-02-10T08:33:50.841Z,8.32
2024-02-10T08:36:19.873Z,5.60
2024-02-10T08:38:46.569Z,8.02
2024-02-10T08:41:13.228Z,6.75
2024-02-10T08:43:47.814Z,7.53
2024-02-10T08:46:17.461Z,5.25
2024-02-10T08:48:43.882Z,6.32
2024-02-10T08:51:13.713Z,7.47
2024-02-10T08:53:43.196Z,5.07
2024-02-10T08:56:12.746Z,5.18
2024-02-10T08:58:44.543Z,4.95
2024-02-10T09:01:16.264Z,4.35
2024-02-10T09:03:53.096Z,5.40
2024-02-10T09:06:23.313Z,8.85
2024-02-10T09:08:51.281Z,6.32
2024-02-10T09:11:18.637Z,5.78
2024-02-10T09:13:45.713Z,5.45
2024-02-10T09:16:14.925Z,6.18
2024-02-10T09:18:44.409Z,6.38
2024-02-10T09:21:14.968Z,8.43
2024-02-10T09:23:42.583Z,4.65
2024-02-10T09:26:15.557Z,3.85
2024-02-10T09:28:47.643Z,6.13
2024-02-10T09:31:14.624Z,6.60
2024-02-10T09:33:42.775Z,6.25
2024-02-10T09:36:12.416Z,6.57
2024-02-10T09:38:40.052Z,5.60
2024-02-10T09:41:08.250Z,7.75
2024-02-10T09:43:37.380Z,6.68
2024-02-10T09:46:07.262Z,3.70
2024-02-10T09:48:42.236Z,5.22
2024-02-10T09:51:08.686Z,6.25
2024-02-10T09:53:35.262Z,8.23
2024-02-10T09:56:03.339Z,2.88
2024-02-10T09:58:30.384Z,4.38
2024-02-10T10:01:00.247Z,4.40
2024-02-10T10:03:27.077Z,4.05
2024-02-10T10:05:52.986Z,5.85
2024-02-10T10:08:22.441Z,6.28
2024-02-10T10:10:51.485Z,5.82
2024-02-10T10:13:17.677Z,3.45
2024-02-10T10:15:43.643Z,6.68
2024-02-10T10:18:16.606Z,5.53
2024-02-10T10:20:49.858Z,6.10
2024-02-10T10:23:16.637Z,3.92
2024-02-10T10:25:46.298Z,7.28
2024-02-10T10:28:14.137Z,7.82
2024-02-10T10:30:44.291Z,5.00
2024-02-10T10:33:11.447Z,4.25
2024-02-10T10:35:45.411Z,4.32
2024-02-10T10:38:12.340Z,3.80
2024-02-10T10:40:38.905Z,6.03
2024-02-10T10:43:12.474Z,7.55
2024-02-10T10:45:40.223Z,5.13
2024-02-10T10:48:06.753Z,4.13
2024-02-10T10:50:34.004Z,4.13
2024-02-10T10:53:06.708Z,5.68
2024-02-10T10:55:39.455Z,3.83
2024-02-10T10:58:09.844Z,5.72
2024-02-10T11:00:39.716Z,6.30
2024-02-10T11:03:05.790Z,6.95
2024-02-10T11:05:40.703Z,6.03
2024-02-10T11:08:08.846Z,6.57
2024-02-10T11:10:40.229Z,5.80
2024-02-10T11:13:07.371Z,6.50
2024-02-10T11:15:38.308Z,4.85
2024-02-10T11:18:04.624Z,4.07
2024-02-10T11:20:35.363Z,4.93
2024-02-10T11:23:12.150Z,4.82
2024-02-10T11:25:42.306Z,4.05
2024-02-10T11:28:20.959Z,4.05
2024-02-10T11:30:48.154Z,6.18
2024-02-10T11:33:17.776Z,2.47
2024-02-10T11:35:47.029Z,6.45
2024-02-10T11:38:14.640Z,3.95
2024-02-10T11:40:41.125Z,7.35
2024-02-10T11:43:11.279Z,4.65
2024-02-10T11:45:40.173Z,6.25
2024-02-10T11:48:08.884Z,7.47
2024-02-10T11:50:58.959Z,9.90
2024-02-10T11:53:31.678Z,5.97
2024-02-10T11:55:59.003Z,6.35
2024-02-10T11:58:28.032Z,5.40
2024-02-10T12:00:53.972Z,4.55
2024-02-10T12:03:23.899Z,6.03
2024-02-10T12:05:50.015Z,4.30
2024-02-10T12:08:16.013Z,6.03
2024-02-10T12:10:42.836Z,6.18
2024-02-10T12:13:11.839Z,7.28
2024-02-10T12:15:41.111Z,7.25
2024-02-10T12:18:08.366Z,5.53
2024-02-10T12:20:38.140Z,5.78
2024-02-10T12:23:04.342Z,8.55
2024-02-10T12:25:30.193Z,6.95
2024-02-10T12:27:57.818Z,4.35
2024-02-10T12:30:23.776Z,5.80
2024-02-10T12:32:54.836Z,6.18
2024-02-10T12:35:21.006Z,9.90
2024-02-10T12:37:47.760Z,7.40
2024-02-10T12:40:17.988Z,11.30
2024-02-10T12:42:43.986Z,5.78
2024-02-10T12:45:12.029Z,6.15
2024-02-10T12:47:38.361Z,8.13
2024-02-10T12:50:09.510Z,4.28
2024-02-10T12:52:39.010Z,6.47
2024-02-10T12:55:14.075Z,7.97
2024-02-10T12:57:41.378Z,7.38
2024-02-10T13:00:19.486Z,7.47
2024-02-10T13:02:52.460Z,9.38
2024-02-10T13:05:20.829Z,8.48
2024-02-10T13:10:24.997Z,10.32
2024-02-10T13:12:53.819Z,8.38
2024-02-10T13:15:20.638Z,8.32
2024-02-10T13:17:50.716Z,7.97
2024-02-10T13:20:18.031Z,11.25
2024-02-10T13:22:44.909Z,7.72
2024-02-10T13:25:11.041Z,9.73
2024-02-10T13:27:37.555Z,9.63
2024-02-10T13:30:08.890Z,9.15
2024-02-10T13:32:38.748Z,11.00
2024-02-10T13:35:18.303Z,9.48
2024-02-10T13:38:05.345Z,9.07
2024-02-10T13:40:50.610Z,8.27
2024-02-10T13:43:35.243Z,7.65
2024-02-10T13:46:19.465Z,9.10
2024-02-10T13:49:04.637Z,5.82
2024-02-10T13:51:48.879Z,8.20
2024-02-10T13:54:33.073Z,8.88
2024-02-10T13:57:17.837Z,8.02
2024-02-10T13:59:43.760Z,9.98
2024-02-10T14:02:18.341Z,8.63
2024-02-10T14:04:48.666Z,8.68
2024-02-10T14:07:31.353Z,7.55
2024-02-10T14:10:12.276Z,5.88
2024-02-10T14:12:46.309Z,9.93
2024-02-10T14:15:21.093Z,9.23
2024-02-10T14:17:48.237Z,8.27
2024-02-10T14:20:20.382Z,7.63
2024-02-10T14:22:47.960Z,9.35
2024-02-10T14:25:24.336Z,7.20
2024-02-10T14:27:59.235Z,8.75
2024-02-10T14:30:34.732Z,14.40
2024-02-10T14:33:16.309Z,7.32
2024-02-10T14:35:58.815Z,8.75
2024-02-10T14:38:25.171Z,11.05
2024-02-10T14:40:52.332Z,6.38
2024-02-10T14:43:19.022Z,9.10
2024-02-10T14:45:45.573Z,10.27
2024-02-10T14:48:11.599Z,10.77
2024-02-10T14:50:37.669Z,9.35
2024-02-10T14:53:03.781Z,5.63
2024-02-10T14:55:31.099Z,7.78
2024-02-10T14:57:57.067Z,6.30
2024-02-10T15:00:31.318Z,8.65
2024-02-10T15:02:59.508Z,7.57
2024-02-10T15:05:28.170Z,8.75
2024-02-10T15:08:00.405Z,5.93
2024-02-10T15:10:27.533Z,7.75
2024-02-10T15:12:55.467Z,7.47
2024-02-10T15:15:21.454Z,9.45
2024-02-10T15:17:48.147Z,9.65
2024-02-10T15:20:14.073Z,6.55
2024-02-10T15:22:41.149Z,7.97
2024-02-10T15:25:07.608Z,9.73
2024-02-10T15:27:34.916Z,10.13
2024-02-10T15:30:01.553Z,12.00
2024-02-10T15:32:27.790Z,8.25
2024-02-10T15:35:00.480Z,9.50
2024-02-10T15:37:29.053Z,9.07
2024-02-10T15:39:55.218Z,8.40
2024-02-10T15:42:21.071Z,11.57
2024-02-10T15:44:47.726Z,9.98
2024-02-10T15:47:13.954Z,11.18
2024-02-10T15:49:42.772Z,12.57
2024-02-10T15:52:09.845Z,12.00
2024-02-10T15:54:35.718Z,8.32
2024-02-10T15:57:02.790Z,6.38
2024-02-10T15:59:33.341Z,8.77
2024-02-10T16:01:59.221Z,10.10
2024-02-10T16:04:25.093Z,9.30
2024-02-10T16:06:51.301Z,12.30
2024-02-10T16:09:17.900Z,11.50
2024-02-10T16:11:43.845Z,12.63
2024-02-10T16:14:11.979Z,14.38
2024-02-10T16:16:38.479Z,21.05
2024-02-10T16:19:05.170Z,15.27
2024-02-10T16:21:31.096Z,11.95
2024-02-10T16:24:00.152Z,12.27
2024-02-10T16:26:26.665Z,17.13
2024-02-10T16:28:53.254Z,11.90
2024-02-10T16:31:21.180Z,14.65
2024-02-10T16:33:51.882Z,14.13
2024-02-10T16:36:22.139Z,12.40
2024-02-10T16:38:47.996Z,12.50
2024-02-10T16:41:22.906Z,10.98
2024-02-10T16:43:48.990Z,12.68
2024-02-10T16:46:16.732Z,14.13
2024-02-10T16:48:46.531Z,10.68
2024-02-10T16:51:32.469Z,9.70
2024-02-10T16:53:59.842Z,14.05
2024-02-10T16:56:25.894Z,10.80
2024-02-10T16:58:54.636Z,17.50
2024-02-10T17:01:20.654Z,13.77
2024-02-10T17:03:46.656Z,16.27
2024-02-10T17:06:13.095Z,12.30
2024-02-10T17:08:39.038Z,12.38
2024-02-10T17:11:06.217Z,10.38
2024-02-10T17:13:32.145Z,9.80
2024-02-10T17:15:58.070Z,13.63
2024-02-10T17:18:24.179Z,11.77
2024-02-10T17:21:03.287Z,10.88
2024-02-10T17:23:32.235Z,14.60
2024-02-10T17:26:07.103Z,8.88
2024-02-10T17:28:33.213Z,13.50
2024-02-10T17:30:59.195Z,12.27
2024-02-10T17:33:27.087Z,11.35
2024-02-10T17:35:53.580Z,12.80
2024-02-10T17:38:21.421Z,12.40
2024-02-10T17:40:48.396Z,11.90
2024-02-10T17:43:17.732Z,13.98
2024-02-10T17:45:44.346Z,11.48
2024-02-10T17:48:20.422Z,15.10
2024-02-10T17:50:54.219Z,11.68
2024-02-10T17:53:22.481Z,13.60
2024-02-10T17:55:50.416Z,10.63
2024-02-10T17:58:19.042Z,13.05
2024-02-10T18:03:23.285Z,11.30
2024-02-10T18:05:51.225Z,14.40
2024-02-10T18:08:20.060Z,12.02
2024-02-10T18:10:49.538Z,10.48
2024-02-10T18:13:17.537Z,12.57
2024-02-10T18:15:44.305Z,10.98
2024-02-10T18:18:12.811Z,11.60
2024-02-10T18:23:07.188Z,10.38
2024-02-10T18:25:33.659Z,14.48
2024-02-10T18:28:04.355Z,15.25
2024-02-10T18:30:30.324Z,12.65
2024-02-10T18:32:56.273Z,13.85
2024-02-10T18:35:25.275Z,10.43
2024-02-10T18:37:55.261Z,11.70
2024-02-10T18:40:27.099Z,10.10
2024-02-10T18:42:54.057Z,12.07
2024-02-10T18:45:20.649Z,12.63
2024-02-10T18:47:47.469Z,14.02
2024-02-10T18:50:19.907Z,11.80
2024-02-10T18:52:50.097Z,10.57
2024-02-10T18:55:19.448Z,13.90
2024-02-10T18:57:46.250Z,13.50
2024-02-10T19:00:21.363Z,12.32
2024-02-10T19:02:49.759Z,15.68
2024-02-10T19:05:16.788Z,15.75
2024-02-10T19:07:43.864Z,17.63
2024-02-10T19:10:10.581Z,10.00
2024-02-10T19:12:37.544Z,12.13
2024-02-10T19:15:10.321Z,12.88
2024-02-10T19:17:37.744Z,12.88
2024-02-10T19:20:08.019Z,14.05
2024-02-10T19:22:36.961Z,10.32
2024-02-10T19:25:10.922Z,13.70
2024-02-10T19:27:38.900Z,12.35
2024-02-10T19:30:11.868Z,16.08
2024-02-10T19:32:42.324Z,11.13
2024-02-10T19:35:22.696Z,14.13
2024-02-10T19:37:49.596Z,10.65
2024-02-10T19:40:17.017Z,12.35
2024-02-10T19:42:43.941Z,13.93
2024-02-10T19:45:14.669Z,17.73
2024-02-10T19:47:41.305Z,14.60
2024-02-10T19:50:09.356Z,19.65
2024-02-10T19:52:37.805Z,16.23
2024-02-10T19:55:04.232Z,12.90
2024-02-10T19:57:30.759Z,13.90
2024-02-10T19:59:59.328Z,14.30
2024-02-10T20:02:25.744Z,12.95
2024-02-10T20:04:54.820Z,13.35
2024-02-10T20:07:20.993Z,15.27
2024-02-10T20:09:50.623Z,13.63
2024-02-10T20:12:16.539Z,13.95
2024-02-10T20:14:42.563Z,13.93
2024-02-10T20:17:10.708Z,12.82
2024-02-10T20:19:42.426Z,13.77
2024-02-10T20:22:09.320Z,13.90
2024-02-10T20:24:36.150Z,20.38
2024-02-10T20:27:08.796Z,15.55
2024-02-10T20:29:36.198Z,14.32
2024-02-10T20:32:03.288Z,22.60
2024-02-10T20:34:31.866Z,14.07
2024-02-10T20:39:28.388Z,13.25
2024-02-10T20:41:58.602Z,15.38
2024-02-10T20:44:27.150Z,13.32
2024-02-10T20:46:56.160Z,15.98
2024-02-10T20:49:25.522Z,21.08
2024-02-10T20:51:55.280Z,17.42
2024-02-10T20:54:21.927Z,19.67
2024-02-10T20:56:49.936Z,18.23
2024-02-10T20:59:18.061Z,16.33
2024-02-10T21:01:43.963Z,15.55
2024-02-10T21:04:13.406Z,11.90
2024-02-10T21:06:40.965Z,13.10
2024-02-10T21:09:11.103Z,14.30
2024-02-10T21:11:41.002Z,17.42
2024-02-10T21:14:13.864Z,13.82
2024-02-10T21:16:42.071Z,12.70
2024-02-10T21:19:09.168Z,12.40
2024-02-10T21:21:37.448Z,17.83
2024-02-10T21:24:03.622Z,12.75
2024-02-10T21:26:31.934Z,13.20
2024-02-10T21:28:57.856Z,15.35
2024-02-10T21:31:23.826Z,12.98
2024-02-10T21:33:51.155Z,12.90
2024-02-10T21:36:19.922Z,13.25
2024-02-10T21:38:46.223Z,13.05
2024-02-10T21:41:12.174Z,15.63
2024-02-10T21:43:40.194Z,17.10
2024-02-10T21:46:06.334Z,15.63
2024-02-10T21:48:32.251Z,16.02
2024-02-10T21:50:58.233Z,19.48
2024-02-10T21:53:26.066Z,17.48
2024-02-10T21:55:51.976Z,14.68
2024-02-10T21:58:18.956Z,15.02
2024-02-10T22:00:44.792Z,16.00
2024-02-10T22:03:10.724Z,15.85
2024-02-10T22:05:36.879Z,14.95
2024-02-10T22:08:03.052Z,12.95
2024-02-10T22:10:31.071Z,11.27
2024-02-10T22:12:56.960Z,12.52
2024-02-10T22:15:22.838Z,14.23
2024-02-10T22:17:48.933Z,11.40
2024-02-10T22:20:16.648Z,13.30
2024-02-10T22:22:43.230Z,14.15
2024-02-10T22:25:10.932Z,13.95
2024-02-10T22:27:38.187Z,16.00
2024-02-10T22:30:07.542Z,15.88
2024-02-10T22:32:33.435Z,10.98
2024-02-10T22:34:59.629Z,13.43
2024-02-10T22:37:25.859Z,14.57
2024-02-10T22:39:52.691Z,18.92
2024-02-10T22:42:23.859Z,13.25
2024-02-10T22:44:51.912Z,15.65
2024-02-10T22:47:19.071Z,16.13
2024-02-10T22:49:46.347Z,12.30
2024-02-10T22:52:22.223Z,15.55
2024-02-10T22:54:52.694Z,17.58
2024-02-10T22:57:19.031Z,14.68
2024-02-10T22:59:45.574Z,13.68
2024-02-10T23:02:16.440Z,12.88
2024-02-10T23:04:46.604Z,14.57
2024-02-10T23:07:14.664Z,17.80
2024-02-10T23:09:43.476Z,14.05
2024-02-10T23:14:45.939Z,20.45
2024-02-10T23:17:19.588Z,19.42
2024-02-10T23:19:53.144Z,17.38
2024-02-10T23:22:31.949Z,16.55
2024-02-10T23:24:58.930Z,15.30
2024-02-10T23:27:28.351Z,12.93
2024-02-10T23:29:55.455Z,19.10
2024-02-10T23:32:23.488Z,14.40
2024-02-10T23:34:50.472Z,14.93
2024-02-10T23:37:22.347Z,15.20
2024-02-10T23:39:50.424Z,13.13
2024-02-10T23:42:16.751Z,13.68
2024-02-10T23:44:42.975Z,12.15
2024-02-10T23:47:14.054Z,11.38
2024-02-10T23:49:44.666Z,16.05
2024-02-10T23:52:14.424Z,14.68
2024-02-10T23:54:42.099Z,14.68
2024-02-10T23:57:09.497Z,13.98
2024-02-10T23:59:38.853Z,13.80
